Time;durP1;ratioP1;P1;durP2;ratioP2;P2;SDS_P1;SDS_P2;PMS_P1;PMS_P2;Temp;Humidity;BMP_temperature;BMP_pressure;BME280_temperature;BME280_humidity;BME280_pressure;Samples;Min_cycle;Max_cycle;Signal;HPM_P1;HPM_P2
2023/03/22 00:01:42;;;;;;;17.08;9.30;;;10.30;99.90;;;;;;5111279;27;20047;-81
2023/03/22 00:04:07;;;;;;;17.40;8.57;;;10.30;99.90;;;;;;5128981;27;20047;-81
2023/03/22 00:06:33;;;;;;;11.25;7.63;;;10.30;99.90;;;;;;5112206;27;20046;-81
2023/03/22 00:08:59;;;;;;;19.17;8.52;;;10.30;99.90;;;;;;5128291;27;20039;-80
2023/03/22 00:11:25;;;;;;;15.32;6.95;;;10.30;99.90;;;;;;5095470;27;20061;-81
2023/03/22 00:13:51;;;;;;;13.98;7.05;;;10.30;99.90;;;;;;5128839;27;20386;-81
2023/03/22 00:16:17;;;;;;;18.50;7.38;;;10.30;99.90;;;;;;5111700;27;20458;-81
2023/03/22 00:18:43;;;;;;;22.05;7.75;;;10.30;99.90;;;;;;5129612;27;20035;-80
2023/03/22 00:21:14;;;;;;;16.65;7.07;;;10.30;99.90;;;;;;5111012;27;20440;-81
2023/03/22 00:23:40;;;;;;;13.30;7.25;;;10.20;99.90;;;;;;5129872;27;20048;-80
2023/03/22 00:26:08;;;;;;;18.98;7.72;;;10.30;99.90;;;;;;5109763;27;20039;-81
2023/03/22 00:28:35;;;;;;;15.85;6.97;;;10.30;99.90;;;;;;5111653;27;20093;-80
2023/03/22 00:31:01;;;;;;;14.88;6.93;;;10.20;99.90;;;;;;5128395;27;20043;-81
2023/03/22 00:33:29;;;;;;;14.35;5.85;;;10.20;99.90;;;;;;5129673;27;20057;-80
2023/03/22 00:36:00;;;;;;;14.70;6.45;;;10.20;99.90;;;;;;5128980;27;20054;-81
2023/03/22 00:38:35;;;;;;;16.90;7.00;;;10.20;99.90;;;;;;5128620;27;20091;-81
2023/03/22 00:41:08;;;;;;;12.50;6.40;;;10.20;99.90;;;;;;5129740;27;20179;-81
2023/03/22 00:43:35;;;;;;;16.45;6.82;;;10.20;99.90;;;;;;5127996;27;20039;-82
2023/03/22 00:46:00;;;;;;;16.10;6.38;;;10.80;99.90;;;;;;5111384;27;20427;-81
2023/03/22 00:48:26;;;;;;;12.43;5.82;;;10.30;99.90;;;;;;5128954;27;20092;-81
2023/03/22 00:50:52;;;;;;;15.90;5.68;;;10.30;99.90;;;;;;5128566;27;20043;-81
2023/03/22 00:53:17;;;;;;;13.18;6.32;;;10.10;99.90;;;;;;5128852;27;20343;-81
2023/03/22 00:55:43;;;;;;;11.05;5.55;;;10.10;99.90;;;;;;5128140;27;20035;-81
2023/03/22 00:58:09;;;;;;;16.35;5.15;;;10.70;99.90;;;;;;5129513;27;20148;-81
2023/03/22 01:00:34;;;;;;;18.35;5.72;;;10.10;99.90;;;;;;5108633;27;20490;-81
2023/03/22 01:03:03;;;;;;;12.68;4.43;;;9.40;99.90;;;;;;5094137;27;20050;-81
2023/03/22 01:05:33;;;;;;;13.35;4.88;;;11.00;99.90;;;;;;5109067;27;20062;-81
2023/03/22 01:08:19;;;;;;;11.05;4.35;;;10.10;99.90;;;;;;5128504;27;20046;-81
2023/03/22 01:10:45;;;;;;;9.00;3.75;;;10.00;99.90;;;;;;5110856;27;20399;-80
2023/03/22 01:13:11;;;;;;;5.80;3.33;;;10.00;99.90;;;;;;5127510;27;20035;-81
2023/03/22 01:15:37;;;;;;;10.35;3.67;;;9.90;99.90;;;;;;5077022;27;20112;-81
2023/03/22 01:18:03;;;;;;;9.70;3.88;;;10.40;99.90;;;;;;5127523;27;20046;-82
2023/03/22 01:20:29;;;;;;;9.20;3.78;;;9.90;99.90;;;;;;5128239;27;20410;-81
2023/03/22 01:22:55;;;;;;;12.30;3.85;;;9.90;99.90;;;;;;5127776;27;20035;-80
2023/03/22 01:25:21;;;;;;;13.00;3.45;;;10.50;99.90;;;;;;5109545;27;20050;-82
2023/03/22 01:27:46;;;;;;;11.27;3.88;;;11.10;99.90;;;;;;5128479;27;20047;-81
2023/03/22 01:30:13;;;;;;;14.13;3.38;;;9.90;99.90;;;;;;5126814;27;20122;-81
2023/03/22 01:32:39;;;;;;;13.18;4.15;;;9.90;99.90;;;;;;5110261;27;20624;-81
2023/03/22 01:35:05;;;;;;;15.95;3.88;;;9.90;99.90;;;;;;5126944;27;20451;-81
2023/03/22 01:37:31;;;;;;;15.30;4.25;;;9.90;99.90;;;;;;5092814;27;20107;-81
2023/03/22 01:39:57;;;;;;;7.95;2.83;;;11.20;99.90;;;;;;5109654;27;20035;-81
2023/03/22 01:42:25;;;;;;;11.15;2.75;;;9.80;99.90;;;;;;5127665;27;20084;-81
2023/03/22 01:45:12;;;;;;;9.75;2.80;;;9.80;99.90;;;;;;5128423;27;20251;-81
2023/03/22 01:47:42;;;;;;;15.57;2.83;;;9.80;99.90;;;;;;5126643;27;20113;-81
2023/03/22 01:50:08;;;;;;;8.60;2.65;;;10.90;99.90;;;;;;5128525;27;20118;-82
2023/03/22 01:52:36;;;;;;;16.67;2.72;;;10.00;99.90;;;;;;5127256;27;20050;-81
2023/03/22 01:55:05;;;;;;;5.25;2.22;;;10.40;99.90;;;;;;5127826;27;20082;-81
2023/03/22 01:57:36;;;;;;;17.02;2.45;;;9.80;99.90;;;;;;5127747;27;20035;-80
2023/03/22 02:00:09;;;;;;;11.75;2.63;;;10.30;99.90;;;;;;5126773;27;20043;-80
2023/03/22 02:02:35;;;;;;;6.85;1.77;;;9.80;99.90;;;;;;5128242;27;20051;-81
2023/03/22 02:05:02;;;;;;;7.15;1.80;;;10.30;99.90;;;;;;5108163;27;20379;-81
2023/03/22 02:07:30;;;;;;;7.13;2.88;;;9.80;99.90;;;;;;5127626;27;20054;-81
2023/03/22 02:09:57;;;;;;;13.02;2.47;;;10.90;99.90;;;;;;5109081;27;20046;-81
2023/03/22 02:12:41;;;;;;;7.05;1.73;;;9.70;99.90;;;;;;5108886;27;20066;-81
2023/03/22 02:15:28;;;;;;;14.57;1.83;;;9.70;99.90;;;;;;5127581;27;20039;-81
2023/03/22 02:18:19;;;;;;;4.45;1.17;;;9.70;99.90;;;;;;5126164;27;20435;-81
2023/03/22 02:21:14;;;;;;;9.70;1.75;;;10.00;99.90;;;;;;5127277;27;20047;-81
2023/03/22 02:23:56;;;;;;;10.05;1.88;;;9.70;99.90;;;;;;5127634;27;20119;-80
2023/03/22 02:26:30;;;;;;;13.43;1.90;;;9.70;99.90;;;;;;5107789;27;20051;-81
2023/03/22 02:29:15;;;;;;;15.35;2.42;;;10.00;99.90;;;;;;5127556;27;20039;-81
2023/03/22 02:31:52;;;;;;;7.90;1.77;;;9.70;99.90;;;;;;5108823;27;20470;-81
2023/03/22 02:35:06;;;;;;;4.57;1.33;;;9.70;99.90;;;;;;5107296;27;20043;-81
2023/03/22 02:37:53;;;;;;;9.07;0.95;;;9.70;99.90;;;;;;5084145;27;20076;-81
2023/03/22 02:40:59;;;;;;;8.85;1.50;;;9.70;99.90;;;;;;5108642;27;20047;-81
2023/03/22 02:43:37;;;;;;;9.88;1.77;;;9.70;99.90;;;;;;5124038;27;20061;-81
2023/03/22 02:46:05;;;;;;;7.05;1.08;;;9.70;99.90;;;;;;5108784;27;20061;-80
2023/03/22 02:48:54;;;;;;;11.55;1.70;;;9.70;99.90;;;;;;5126573;27;20516;-81
2023/03/22 02:51:35;;;;;;;10.40;1.67;;;9.70;99.90;;;;;;5109646;27;20490;-81
2023/03/22 02:54:30;;;;;;;8.25;1.23;;;11.10;99.90;;;;;;5108811;27;20578;-81
2023/03/22 02:57:07;;;;;;;6.53;1.00;;;9.80;99.90;;;;;;5124849;27;20582;-81
2023/03/22 02:59:37;;;;;;;12.82;1.55;;;9.80;99.90;;;;;;5090142;27;20091;-81
2023/03/22 03:02:04;;;;;;;9.73;1.13;;;9.90;99.90;;;;;;5127127;27;20435;-81
2023/03/22 03:04:35;;;;;;;7.40;1.13;;;9.70;99.90;;;;;;5124810;27;20039;-81
2023/03/22 03:07:06;;;;;;;8.68;1.25;;;9.80;99.90;;;;;;5108521;27;20043;-81
2023/03/22 03:09:33;;;;;;;6.60;1.17;;;9.80;99.90;;;;;;5125518;27;20043;-81
2023/03/22 03:11:59;;;;;;;10.93;1.58;;;10.40;99.90;;;;;;5108080;27;20054;-81
2023/03/22 03:14:27;;;;;;;10.95;1.10;;;9.80;99.90;;;;;;5108422;27;20122;-81
2023/03/22 03:17:13;;;;;;;8.20;1.65;;;9.80;99.90;;;;;;5125990;27;20414;-81
2023/03/22 03:19:42;;;;;;;14.00;1.40;;;9.80;99.90;;;;;;5094058;27;20051;-81
2023/03/22 03:22:36;;;;;;;5.57;0.85;;;9.80;99.90;;;;;;5106587;27;20047;-81
2023/03/22 03:25:17;;;;;;;8.80;1.50;;;9.90;99.90;;;;;;5125630;27;20035;-81
2023/03/22 03:28:21;;;;;;;12.00;1.40;;;9.90;99.90;;;;;;5126401;27;20062;-82
2023/03/22 03:31:05;;;;;;;9.23;0.90;;;9.90;99.90;;;;;;5110201;27;20058;-82
2023/03/22 03:33:34;;;;;;;11.65;1.52;;;10.10;99.90;;;;;;5090652;28;20047;-82
2023/03/22 03:36:11;;;;;;;8.68;1.27;;;9.90;99.90;;;;;;5126200;27;20035;-81
2023/03/22 03:38:43;;;;;;;15.10;1.48;;;9.90;99.90;;;;;;5106532;27;20688;-81
2023/03/22 03:41:16;;;;;;;5.55;1.13;;;9.90;99.90;;;;;;5108052;28;20053;-80
2023/03/22 03:43:42;;;;;;;;;;;9.90;99.90;;;;;;5125568;27;20050;-81
2023/03/22 03:46:08;;;;;;;12.45;1.98;;;10.20;99.90;;;;;;5126035;27;19927;-81
2023/03/22 03:48:37;;;;;;;11.48;1.75;;;9.90;99.90;;;;;;5125589;28;20306;-80
2023/03/22 03:51:03;;;;;;;8.48;1.40;;;9.90;99.90;;;;;;5106739;28;20047;-81
2023/03/22 03:53:30;;;;;;;13.50;1.50;;;9.90;99.90;;;;;;5107921;28;20039;-81
2023/03/22 03:55:55;;;;;;;11.77;2.72;;;9.90;99.90;;;;;;5124499;28;20035;-81
2023/03/22 03:58:22;;;;;;;7.72;1.15;;;9.90;99.90;;;;;;5107730;28;20043;-81
2023/03/22 04:00:48;;;;;;;10.50;1.50;;;9.90;99.90;;;;;;5105993;28;20490;-81
2023/03/22 04:03:14;;;;;;;11.15;1.73;;;9.90;99.90;;;;;;5125790;28;20039;-81
2023/03/22 04:05:40;;;;;;;13.48;3.08;;;9.90;99.90;;;;;;5125493;28;20498;-81
2023/03/22 04:08:06;;;;;;;10.07;1.58;;;10.30;99.90;;;;;;5124702;28;20043;-81
2023/03/22 04:10:32;;;;;;;14.18;2.25;;;9.90;99.90;;;;;;5126024;28;20072;-82
2023/03/22 04:12:58;;;;;;;9.75;1.98;;;10.90;99.90;;;;;;5124170;28;20086;-81
2023/03/22 04:15:24;;;;;;;5.95;1.42;;;9.90;99.90;;;;;;5126373;28;20043;-80
2023/03/22 04:17:50;;;;;;;10.63;1.67;;;9.90;99.90;;;;;;5088921;28;20047;-80
2023/03/22 04:20:16;;;;;;;8.68;1.60;;;9.90;99.90;;;;;;5126152;28;20471;-81
2023/03/22 04:22:45;;;;;;;13.35;3.28;;;9.90;99.90;;;;;;5125688;28;20035;-80
2023/03/22 04:25:13;;;;;;;12.07;1.60;;;9.90;99.90;;;;;;5124262;28;20062;-80
2023/03/22 04:27:41;;;;;;;10.82;1.75;;;9.80;99.90;;;;;;5126023;28;20196;-80
2023/03/22 04:30:10;;;;;;;13.40;1.77;;;9.80;99.90;;;;;;5124391;28;20043;-81
2023/03/22 04:32:37;;;;;;;8.10;1.42;;;9.80;99.90;;;;;;5126309;28;20114;-81
2023/03/22 04:35:04;;;;;;;12.23;1.80;;;9.80;99.90;;;;;;5123976;28;20081;-81
2023/03/22 04:37:32;;;;;;;12.38;2.60;;;9.80;99.90;;;;;;5107097;28;20043;-81
2023/03/22 04:39:58;;;;;;;10.63;2.40;;;9.80;99.90;;;;;;5127270;27;20047;-81
2023/03/22 04:42:24;;;;;;;9.00;1.50;;;10.40;99.90;;;;;;5128656;27;20039;-81
2023/03/22 04:44:50;;;;;;;7.50;1.75;;;10.20;99.90;;;;;;5130115;27;20039;-80
2023/03/22 04:47:17;;;;;;;10.07;2.13;;;11.00;99.90;;;;;;5109992;27;20043;-81
2023/03/22 04:49:43;;;;;;;7.35;1.90;;;10.10;99.90;;;;;;5129536;27;20047;-81
2023/03/22 04:52:09;;;;;;;12.73;2.50;;;10.10;99.90;;;;;;5127789;27;20045;-80
2023/03/22 04:54:35;;;;;;;11.20;3.60;;;10.90;99.90;;;;;;5129002;27;20482;-81
2023/03/22 04:57:01;;;;;;;11.60;3.00;;;9.90;99.90;;;;;;5110231;27;20485;-81
2023/03/22 04:59:27;;;;;;;9.40;2.90;;;9.90;99.90;;;;;;5109880;27;20129;-81
2023/03/22 05:01:53;;;;;;;13.80;3.30;;;9.90;99.90;;;;;;5111901;27;20035;-80
2023/03/22 05:04:19;;;;;;;7.13;2.97;;;10.60;99.90;;;;;;5128029;27;20042;-81
2023/03/22 05:06:45;;;;;;;9.27;3.80;;;9.90;99.90;;;;;;5129736;27;20058;-81
2023/03/22 05:09:12;;;;;;;12.07;3.67;;;10.50;99.90;;;;;;5128053;27;20050;-81
2023/03/22 05:11:39;;;;;;;14.18;3.47;;;10.40;99.90;;;;;;5111150;27;20099;-81
2023/03/22 05:14:06;;;;;;;14.57;4.40;;;10.00;99.90;;;;;;5110005;27;20051;-80
2023/03/22 05:16:33;;;;;;;11.43;3.35;;;10.40;99.90;;;;;;5109907;27;20128;-81
2023/03/22 05:19:01;;;;;;;8.45;3.33;;;10.00;99.90;;;;;;5128817;27;20176;-81
2023/03/22 05:21:28;;;;;;;9.70;4.40;;;10.00;99.90;;;;;;5127454;27;20050;-81
2023/03/22 05:23:55;;;;;;;11.27;4.22;;;10.90;99.90;;;;;;5110307;27;20132;-81
2023/03/22 05:26:23;;;;;;;13.05;4.30;;;10.00;99.90;;;;;;5127339;27;20042;-81
2023/03/22 05:28:50;;;;;;;12.30;4.88;;;10.00;99.90;;;;;;5109903;27;20487;-81
2023/03/22 05:31:16;;;;;;;12.40;5.38;;;11.40;99.90;;;;;;5128330;27;20046;-81
2023/03/22 05:33:45;;;;;;;11.95;5.32;;;10.10;99.90;;;;;;5127476;27;20663;-81
2023/03/22 05:36:11;;;;;;;13.27;5.05;;;10.60;99.90;;;;;;5110799;27;20104;-81
2023/03/22 05:38:37;;;;;;;10.38;5.18;;;10.70;99.90;;;;;;5126639;27;20043;-80
2023/03/22 05:41:03;;;;;;;11.02;4.57;;;10.10;99.90;;;;;;5128363;27;20039;-81
2023/03/22 05:43:29;;;;;;;10.88;5.53;;;10.10;99.90;;;;;;5126666;27;20422;-81
2023/03/22 05:45:54;;;;;;;13.23;5.72;;;10.70;99.90;;;;;;5128506;27;20474;-80
2023/03/22 05:48:20;;;;;;;8.77;5.63;;;10.20;99.90;;;;;;5128002;27;20134;-80
2023/03/22 05:50:46;;;;;;;12.57;6.00;;;10.40;99.90;;;;;;5127308;27;20150;-81
2023/03/22 05:53:11;;;;;;;9.85;5.25;;;10.10;99.90;;;;;;5128275;27;20036;-81
2023/03/22 05:55:37;;;;;;;13.20;6.25;;;10.50;99.90;;;;;;5126293;27;20100;-81
2023/03/22 05:58:04;;;;;;;14.18;5.35;;;10.20;99.90;;;;;;5110143;27;20041;-81
2023/03/22 06:00:34;;;;;;;13.40;6.85;;;10.60;99.90;;;;;;5126145;27;20435;-82
2023/03/22 06:03:02;;;;;;;10.90;6.13;;;10.50;99.90;;;;;;5109666;27;20490;-81
2023/03/22 06:05:31;;;;;;;14.25;6.18;;;10.70;99.90;;;;;;5127432;27;20043;-86
2023/03/22 06:07:58;;;;;;;21.67;6.57;;;10.10;99.90;;;;;;5108315;27;20050;-81
2023/03/22 06:10:25;;;;;;;15.52;6.47;;;10.20;99.90;;;;;;5109608;27;20043;-81
2023/03/22 06:12:52;;;;;;;12.48;6.28;;;10.20;99.90;;;;;;5126420;27;20399;-81
2023/03/22 06:15:18;;;;;;;18.80;7.30;;;10.20;99.90;;;;;;5110031;27;20395;-81
2023/03/22 06:17:45;;;;;;;16.67;6.45;;;10.10;99.90;;;;;;5125914;27;20043;-81
2023/03/22 06:20:12;;;;;;;14.55;7.20;;;10.20;99.90;;;;;;5109179;27;20113;-80
2023/03/22 06:22:38;;;;;;;14.35;6.93;;;10.20;99.90;;;;;;5126966;27;20172;-81
2023/03/22 06:25:05;;;;;;;18.77;6.65;;;10.30;99.90;;;;;;5126316;27;20118;-79
2023/03/22 06:27:31;;;;;;;14.80;7.45;;;10.30;99.90;;;;;;5127408;27;20058;-80
2023/03/22 06:29:57;;;;;;;14.85;7.13;;;10.30;99.90;;;;;;5107554;27;20075;-80
2023/03/22 06:32:23;;;;;;;15.07;6.93;;;10.30;99.90;;;;;;5091965;27;20425;-80
2023/03/22 06:34:53;;;;;;;28.02;7.80;;;10.40;99.90;;;;;;5107060;27;20039;-80
2023/03/22 06:37:19;;;;;;;13.93;7.32;;;10.40;99.90;;;;;;5108813;27;20039;-80
2023/03/22 06:39:45;;;;;;;14.82;7.35;;;10.30;99.90;;;;;;5107798;27;20126;-80
2023/03/22 06:42:11;;;;;;;16.27;9.25;;;10.40;99.90;;;;;;5091090;27;20126;-81
2023/03/22 06:44:36;;;;;;;16.75;6.63;;;11.40;99.90;;;;;;5091798;27;20043;-80
2023/03/22 06:47:03;;;;;;;14.20;7.00;;;10.40;99.90;;;;;;5106488;27;20116;-80
2023/03/22 06:49:30;;;;;;;18.00;7.07;;;10.40;99.90;;;;;;5091425;27;20031;-82
2023/03/22 06:51:56;;;;;;;13.23;6.90;;;10.40;99.90;;;;;;5090181;27;20050;-81
2023/03/22 06:54:22;;;;;;;17.10;8.85;;;10.40;99.90;;;;;;5091307;27;20046;-82
2023/03/22 06:56:47;;;;;;;16.90;8.10;;;10.80;99.90;;;;;;5091060;27;20035;-82
2023/03/22 06:59:13;;;;;;;13.30;7.28;;;10.50;99.90;;;;;;5090980;27;20494;-82
2023/03/22 07:01:39;;;;;;;12.95;7.38;;;10.50;99.90;;;;;;5090740;28;20459;-83
2023/03/22 07:04:05;;;;;;;16.20;7.32;;;11.20;99.90;;;;;;5090363;27;20046;-84
2023/03/22 07:06:31;;;;;;;14.82;7.50;;;10.60;99.90;;;;;;5108621;27;20394;-84
2023/03/22 07:08:57;;;;;;;11.50;7.57;;;10.60;99.90;;;;;;5106287;27;20054;-83
2023/03/22 07:11:25;;;;;;;13.60;7.70;;;10.70;99.90;;;;;;5126837;27;20039;-84
2023/03/22 07:13:53;;;;;;;15.50;7.65;;;10.70;99.90;;;;;;5107924;27;20043;-83
2023/03/22 07:16:19;;;;;;;14.73;7.15;;;10.80;99.90;;;;;;5107984;27;20394;-85
2023/03/22 07:18:45;;;;;;;16.50;6.53;;;10.90;99.90;;;;;;5108073;27;20039;-84
2023/03/22 07:21:11;;;;;;;15.90;7.30;;;10.90;99.90;;;;;;5106995;27;20592;-83
2023/03/22 07:23:37;;;;;;;15.85;6.93;;;10.90;99.90;;;;;;5091231;28;20125;-83
2023/03/22 07:26:03;;;;;;;15.82;7.80;;;10.90;99.90;;;;;;5090013;27;20100;-84
2023/03/22 07:28:28;;;;;;;11.43;6.28;;;10.90;99.90;;;;;;5109535;27;20043;-83
2023/03/22 07:31:00;;;;;;;16.42;7.93;;;10.90;99.90;;;;;;5091213;28;20039;-84
2023/03/22 07:33:26;;;;;;;15.07;6.38;;;11.00;99.90;;;;;;5107757;27;20054;-85
2023/03/22 07:35:52;;;;;;;18.08;7.10;;;11.00;99.90;;;;;;5109156;27;20073;-81
2023/03/22 07:38:18;;;;;;;12.57;6.20;;;11.20;99.90;;;;;;5090896;28;20043;-86
2023/03/22 07:40:43;;;;;;;12.45;6.97;;;11.00;99.90;;;;;;5109776;28;20066;-85
2023/03/22 07:43:11;;;;;;;14.77;5.47;;;11.00;99.90;;;;;;5056456;28;20043;-84
2023/03/22 07:45:39;;;;;;;14.60;6.00;;;11.20;99.90;;;;;;5091029;27;20039;-82
2023/03/22 07:48:05;;;;;;;19.63;6.03;;;11.00;99.90;;;;;;5106647;28;20078;-82
2023/03/22 07:50:31;;;;;;;13.05;5.80;;;11.00;99.90;;;;;;5090589;28;20079;-81
2023/03/22 07:52:57;;;;;;;15.90;6.00;;;11.00;99.90;;;;;;5091348;28;20070;-82
2023/03/22 07:55:22;;;;;;;19.23;6.40;;;11.00;99.90;;;;;;5089451;28;20130;-82
2023/03/22 07:57:48;;;;;;;11.20;5.13;;;11.00;99.90;;;;;;5091570;28;20049;-82
2023/03/22 08:00:16;;;;;;;13.25;5.30;;;11.00;99.90;;;;;;5124936;28;20122;-82
2023/03/22 08:02:44;;;;;;;19.45;5.70;;;11.00;99.90;;;;;;5107908;28;20086;-81
2023/03/22 08:05:10;;;;;;;11.73;5.15;;;12.10;99.90;;;;;;5124947;28;20099;-81
2023/03/22 08:07:36;;;;;;;14.52;5.78;;;11.20;99.90;;;;;;5090128;28;20459;-82
2023/03/22 08:10:03;;;;;;;14.43;5.43;;;11.20;99.90;;;;;;5126328;28;20051;-82
2023/03/22 08:12:28;;;;;;;11.02;4.90;;;11.40;99.90;;;;;;5124638;28;20031;-82
2023/03/22 08:14:54;;;;;;;17.05;5.10;;;11.40;99.90;;;;;;5128143;27;20046;-82
2023/03/22 08:17:20;;;;;;;11.27;3.97;;;11.50;99.90;;;;;;5109781;27;20059;-82
2023/03/22 08:19:46;;;;;;;15.88;5.20;;;11.60;99.90;;;;;;5111602;27;20039;-82
2023/03/22 08:22:12;;;;;;;10.20;4.40;;;11.60;99.90;;;;;;5128877;27;20043;-81
2023/03/22 08:24:38;;;;;;;17.70;4.30;;;11.50;99.90;;;;;;5110568;27;20051;-82
2023/03/22 08:27:04;;;;;;;8.95;4.22;;;11.50;99.90;;;;;;5129372;27;20115;-82
2023/03/22 08:29:30;;;;;;;13.77;3.88;;;11.50;99.90;;;;;;5128326;27;20126;-82
2023/03/22 08:32:00;;;;;;;11.52;4.10;;;11.50;99.90;;;;;;5130103;27;20538;-84
2023/03/22 08:34:30;;;;;;;12.50;4.20;;;11.60;99.90;;;;;;5110367;27;20074;-85
2023/03/22 08:36:56;;;;;;;13.60;4.63;;;11.60;99.90;;;;;;5111693;27;20079;-84
2023/03/22 08:39:22;;;;;;;7.45;3.50;;;11.60;99.90;;;;;;5092830;27;20086;-82
2023/03/22 08:41:48;;;;;;;11.82;4.95;;;11.70;99.90;;;;;;5110829;27;20526;-82
2023/03/22 08:44:14;;;;;;;9.82;3.50;;;11.70;99.90;;;;;;5093743;27;20153;-81
2023/03/22 08:46:39;;;;;;;11.88;4.05;;;11.70;99.90;;;;;;5109441;27;20122;-81
2023/03/22 08:49:05;;;;;;;13.27;4.13;;;11.80;99.90;;;;;;5093765;27;20031;-81
2023/03/22 08:51:31;;;;;;;15.35;4.63;;;11.90;99.90;;;;;;5109169;27;20144;-81
2023/03/22 08:54:00;;;;;;;13.52;3.53;;;11.90;99.90;;;;;;5129337;27;20050;-81
2023/03/22 08:56:26;;;;;;;16.02;4.03;;;11.90;99.90;;;;;;5127705;27;20059;-82
2023/03/22 08:58:52;;;;;;;9.13;3.05;;;11.90;99.90;;;;;;5128217;27;20079;-82
2023/03/22 09:01:19;;;;;;;12.30;3.78;;;11.90;99.90;;;;;;5128825;27;20486;-82
2023/03/22 09:03:46;;;;;;;6.45;3.63;;;12.40;99.90;;;;;;5109531;27;20124;-82
2023/03/22 09:06:12;;;;;;;14.45;3.53;;;12.00;99.90;;;;;;5111222;27;20119;-81
2023/03/22 09:08:37;;;;;;;10.50;3.10;;;12.00;99.90;;;;;;5091974;27;20039;-82
2023/03/22 09:11:03;;;;;;;10.13;3.33;;;12.10;99.90;;;;;;5111057;27;20050;-82
2023/03/22 09:13:32;;;;;;;13.73;3.70;;;12.20;99.90;;;;;;5109131;27;20042;-82
2023/03/22 09:15:58;;;;;;;13.90;3.60;;;12.20;99.90;;;;;;5110274;27;20239;-82
2023/03/22 09:18:24;;;;;;;10.68;3.30;;;12.10;99.90;;;;;;5128888;27;20035;-82
2023/03/22 09:20:51;;;;;;;10.43;2.95;;;12.10;99.90;;;;;;5109263;27;20403;-82
2023/03/22 09:23:17;;;;;;;8.10;2.88;;;12.00;99.90;;;;;;5129078;27;20104;-82
2023/03/22 09:25:44;;;;;;;11.70;3.20;;;12.00;99.90;;;;;;5090714;27;20047;-82
2023/03/22 09:28:10;;;;;;;12.00;2.83;;;12.00;99.90;;;;;;5110644;27;20046;-82
2023/03/22 09:30:36;;;;;;;19.77;3.60;;;11.90;99.90;;;;;;5127790;27;20415;-82
2023/03/22 09:33:02;;;;;;;15.13;3.85;;;12.00;99.90;;;;;;5128522;27;20144;-82
2023/03/22 09:35:28;;;;;;;16.20;3.08;;;12.00;99.90;;;;;;5110368;27;20042;-82
2023/03/22 09:37:54;;;;;;;9.13;2.22;;;12.00;99.90;;;;;;5108463;27;20043;-82
2023/03/22 09:40:28;;;;;;;13.57;2.38;;;12.10;99.90;;;;;;5128625;27;20525;-82
2023/03/22 09:42:57;;;;;;;8.85;2.83;;;12.00;99.90;;;;;;5126581;27;20051;-82
2023/03/22 09:45:36;;;;;;;15.05;3.17;;;12.00;99.90;;;;;;5128290;27;20584;-82
2023/03/22 09:48:22;;;;;;;16.15;2.70;;;11.80;99.90;;;;;;5127739;27;20058;-82
2023/03/22 09:50:51;;;;;;;7.00;2.65;;;11.90;99.90;;;;;;5108860;27;20047;-84
2023/03/22 09:53:17;;;;;;;12.15;2.72;;;11.90;99.90;;;;;;5110263;27;20035;-82
2023/03/22 09:55:46;;;;;;;15.60;2.80;;;11.80;99.90;;;;;;5126400;27;20043;-82
2023/03/22 09:58:32;;;;;;;13.85;2.75;;;11.80;99.90;;;;;;5128465;27;20630;-82
2023/03/22 10:01:16;;;;;;;9.98;2.58;;;12.70;99.90;;;;;;5127620;27;20050;-82
2023/03/22 10:04:03;;;;;;;10.95;2.83;;;11.70;99.90;;;;;;5126391;27;20601;-83
2023/03/22 10:06:29;;;;;;;14.43;2.72;;;11.70;99.90;;;;;;5128435;27;20118;-82
2023/03/22 10:09:19;;;;;;;9.85;1.98;;;11.60;99.90;;;;;;5126297;27;20047;-82
2023/03/22 10:11:53;;;;;;;15.75;3.70;;;11.80;99.90;;;;;;5127300;27;20406;-83
2023/03/22 10:14:34;;;;;;;6.45;2.13;;;11.40;99.90;;;;;;5128263;27;20111;-82
2023/03/22 10:17:05;;;;;;;7.63;2.13;;;11.40;99.90;;;;;;5108005;27;20625;-83
2023/03/22 10:19:46;;;;;;;8.35;3.00;;;11.30;99.90;;;;;;5109786;27;20068;-82
2023/03/22 10:22:15;;;;;;;10.20;2.55;;;11.20;99.90;;;;;;5108664;27;20133;-82
2023/03/22 10:24:45;;;;;;;8.48;2.67;;;12.40;99.90;;;;;;5107951;27;20039;-83
2023/03/22 10:27:16;;;;;;;13.07;2.47;;;11.10;99.90;;;;;;5109057;27;20096;-84
2023/03/22 10:29:54;;;;;;;9.98;2.55;;;11.10;99.90;;;;;;5107694;27;20116;-83
2023/03/22 10:33:00;;;;;;;15.77;2.67;;;11.90;99.90;;;;;;5128059;27;20240;-83
2023/03/22 10:35:27;;;;;;;12.60;2.83;;;10.90;99.90;;;;;;5127217;27;20045;-83
2023/03/22 10:37:55;;;;;;;7.72;2.55;;;10.90;99.90;;;;;;5125383;27;20043;-83
2023/03/22 10:40:27;;;;;;;9.25;2.78;;;10.90;99.90;;;;;;5109387;27;20089;-84
2023/03/22 10:43:00;;;;;;;7.25;2.10;;;10.90;99.90;;;;;;5107877;27;20463;-83
2023/03/22 10:45:27;;;;;;;6.50;2.85;;;10.80;99.90;;;;;;5109176;27;20457;-83
2023/03/22 10:48:08;;;;;;;10.85;2.53;;;10.80;99.90;;;;;;5107562;27;20055;-82
2023/03/22 10:50:43;;;;;;;6.65;2.05;;;10.70;99.90;;;;;;5126326;27;20038;-83
2023/03/22 10:53:24;;;;;;;11.60;2.80;;;11.20;99.90;;;;;;5127634;27;20122;-83
2023/03/22 10:55:50;;;;;;;14.90;2.63;;;10.70;99.90;;;;;;5106851;27;20051;-83
2023/03/22 10:58:27;;;;;;;6.00;3.13;;;11.10;99.90;;;;;;5127352;27;20099;-82
2023/03/22 11:00:56;;;;;;;6.90;2.05;;;10.70;99.90;;;;;;5107717;27;20103;-84
2023/03/22 11:03:27;;;;;;;11.18;2.75;;;10.60;99.90;;;;;;5107452;27;20050;-83
2023/03/22 11:06:10;;;;;;;10.75;3.33;;;10.70;99.90;;;;;;5108685;27;20509;-83
2023/03/22 11:08:41;;;;;;;;;;;10.70;99.90;;;;;;5125910;27;20046;-84
2023/03/22 11:11:26;;;;;;;11.43;3.78;;;10.70;99.90;;;;;;5108325;27;20009;-82
2023/03/22 11:14:06;;;;;;;7.32;2.58;;;10.70;99.90;;;;;;5108242;27;20050;-85
2023/03/22 11:16:46;;;;;;;11.13;3.08;;;10.70;99.90;;;;;;5107038;27;20129;-83
2023/03/22 11:19:21;;;;;;;6.32;2.50;;;10.80;99.90;;;;;;5109325;27;20154;-84
2023/03/22 11:21:47;;;;;;;7.18;2.38;;;10.70;99.90;;;;;;5106534;28;20050;-83
2023/03/22 11:24:14;;;;;;;8.23;2.38;;;10.80;99.90;;;;;;5091268;27;20051;-84
2023/03/22 11:26:40;;;;;;;7.70;3.30;;;10.80;99.90;;;;;;5107623;27;20039;-84
2023/03/22 11:29:17;;;;;;;11.95;2.53;;;10.80;99.90;;;;;;5072882;27;20053;-83
2023/03/22 11:31:56;;;;;;;5.53;2.40;;;10.80;99.90;;;;;;5127146;27;20043;-83
2023/03/22 11:34:25;;;;;;;7.13;2.63;;;10.80;99.90;;;;;;5106974;27;20451;-83
2023/03/22 11:36:55;;;;;;;9.40;2.65;;;10.80;99.90;;;;;;5126901;27;20096;-83
2023/03/22 11:39:29;;;;;;;11.63;2.42;;;10.80;99.90;;;;;;5090785;27;20079;-83
2023/03/22 11:41:59;;;;;;;7.90;2.15;;;10.80;99.90;;;;;;5106612;27;20478;-85
2023/03/22 11:44:27;;;;;;;9.90;3.10;;;10.90;99.90;;;;;;5091404;27;20083;-83
2023/03/22 11:46:59;;;;;;;6.05;2.50;;;10.80;99.90;;;;;;5124566;27;20091;-83
2023/03/22 11:49:47;;;;;;;9.25;2.30;;;10.80;99.90;;;;;;5126559;27;20050;-83
2023/03/22 11:52:21;;;;;;;7.78;2.88;;;10.80;99.90;;;;;;5090447;28;20074;-83
2023/03/22 11:54:47;;;;;;;11.63;2.80;;;10.90;99.90;;;;;;5125610;28;20039;-84
2023/03/22 11:57:22;;;;;;;7.53;2.75;;;10.80;99.90;;;;;;5126913;28;20046;-83
2023/03/22 12:00:10;;;;;;;9.68;2.28;;;10.90;99.90;;;;;;5105913;28;20047;-87
2023/03/22 12:02:48;;;;;;;7.63;2.40;;;10.80;99.90;;;;;;5108294;28;20425;-85
2023/03/22 12:05:23;;;;;;;6.53;2.05;;;10.80;99.90;;;;;;5090271;28;20045;-85
2023/03/22 12:08:00;;;;;;;10.27;2.90;;;10.80;99.90;;;;;;5124756;28;20478;-84
2023/03/22 12:10:56;;;;;;;8.15;2.22;;;10.90;99.90;;;;;;5091066;28;20079;-83
2023/03/22 12:13:41;;;;;;;7.25;1.80;;;10.80;99.90;;;;;;5104075;28;20058;-83
2023/03/22 12:16:11;;;;;;;6.28;2.13;;;10.80;99.90;;;;;;5106708;28;20043;-83
2023/03/22 12:18:47;;;;;;;7.40;2.40;;;10.80;99.90;;;;;;5108284;28;20371;-85
2023/03/22 12:21:14;;;;;;;9.20;2.72;;;10.80;99.90;;;;;;5106188;28;20039;-83
2023/03/22 12:23:40;;;;;;;5.22;2.10;;;10.80;99.90;;;;;;5107498;28;20062;-83
2023/03/22 12:26:10;;;;;;;8.07;2.58;;;10.80;99.90;;;;;;5089393;28;20063;-82
2023/03/22 12:29:00;;;;;;;4.70;2.15;;;10.80;99.90;;;;;;5106919;28;20047;-83
2023/03/22 12:31:42;;;;;;;5.55;2.45;;;10.80;99.90;;;;;;5106677;28;20055;-84
2023/03/22 12:34:15;;;;;;;6.07;2.40;;;10.90;99.90;;;;;;5105538;28;20047;-83
2023/03/22 12:36:51;;;;;;;8.63;2.17;;;10.90;99.90;;;;;;5107694;28;20258;-83
2023/03/22 12:39:30;;;;;;;9.75;2.38;;;10.90;99.90;;;;;;5106467;28;20039;-83
2023/03/22 12:42:01;;;;;;;6.00;2.28;;;11.00;99.90;;;;;;5088921;28;20414;-82
2023/03/22 12:44:38;;;;;;;8.05;2.47;;;11.00;99.90;;;;;;5126144;28;20111;-82
2023/03/22 12:47:24;;;;;;;9.90;2.30;;;10.90;99.90;;;;;;5088628;28;20501;-81
2023/03/22 12:50:19;;;;;;;8.27;3.35;;;10.90;99.90;;;;;;5107348;28;20130;-84
2023/03/22 12:52:47;;;;;;;10.15;2.33;;;10.90;99.90;;;;;;5123827;28;20494;-85
2023/03/22 12:55:29;;;;;;;6.88;2.17;;;10.80;99.90;;;;;;5105702;28;20047;-82
2023/03/22 12:57:56;;;;;;;7.45;2.20;;;10.80;99.90;;;;;;5126263;28;20093;-82
2023/03/22 13:00:32;;;;;;;8.15;2.58;;;10.80;99.90;;;;;;5107119;27;20047;-84